Huvudsida
METAR-TAF:

METAR-TAF

Flygplatser :

Sogndals flygplats. Haukåsen

Sogndals, Norge

latitud: 61-09N, longitud: 007-08E, höjd: 49 m

Aktuellt väderrapport

Denna rapport gjordes för 1 timme och 27 minuter sedan, klockan 11:50 UTC
Vind 7 kt från ost/nordost
Temperatur 12°C
Fuktighet 94%
Tryck 994 hPa
Sikt 10 km eller mer
Få moln
Brutna moln på en höjd av 4000 ft
lätt regn

METAR: ENSG 171150Z 07007KT 9999 -RA FEW/// BKN040 12/11 Q0994 RMK WIND 3806FT 11014KT

Tid: 15:17 (13:17 UTC)


TAF: saknas

Aktuella väderrapporter och prognoser från 4000 flygplatser (METAR- och TAF-rapporter).

De tillgängliga stationerna syns som gula och röda prickar på kartan.

För musen över prickarna för att se namnen på stationerna.

Klicka sedan för att få väderrapporter och prognoser.

För att ändra kartan: Klicka på de gröna knapparna med ett svart kors på för att zooma in; den gröna knappen med ett streck på för att zooma ut; eller på de gröna pilarna för angränsande kartor.


METAR-TAF: